createdAt,value
2023-03-29T00:01:34.780Z,4.50
2023-03-29T00:04:04.314Z,4.85
2023-03-29T00:06:31.288Z,4.88
2023-03-29T00:08:57.782Z,4.75
2023-03-29T00:11:25.744Z,4.70
2023-03-29T00:13:52.371Z,4.75
2023-03-29T00:16:18.929Z,4.60
2023-03-29T00:18:45.779Z,4.38
2023-03-29T00:21:12.488Z,4.20
2023-03-29T00:23:38.937Z,4.22
2023-03-29T00:26:07.783Z,4.63
2023-03-29T00:28:34.819Z,4.60
2023-03-29T00:31:08.212Z,4.80
2023-03-29T00:33:34.976Z,4.40
2023-03-29T00:36:02.130Z,4.43
2023-03-29T00:38:28.764Z,4.68
2023-03-29T00:40:55.558Z,4.45
2023-03-29T00:43:23.230Z,4.63
2023-03-29T00:45:49.789Z,4.78
2023-03-29T00:48:24.428Z,4.40
2023-03-29T00:50:54.604Z,4.60
2023-03-29T00:53:28.258Z,4.55
2023-03-29T00:56:06.321Z,4.30
2023-03-29T00:59:03.634Z,4.18
2023-03-29T01:01:35.463Z,4.20
2023-03-29T01:04:17.899Z,4.63
2023-03-29T01:06:54.195Z,4.30
2023-03-29T01:09:21.872Z,4.35
2023-03-29T01:11:57.462Z,4.03
2023-03-29T01:14:29.950Z,4.28
2023-03-29T01:16:57.443Z,4.38
2023-03-29T01:19:28.711Z,3.90
2023-03-29T01:22:06.459Z,4.05
2023-03-29T01:25:03.307Z,4.32
2023-03-29T01:27:55.968Z,4.22
2023-03-29T01:30:29.714Z,4.28
2023-03-29T01:33:14.853Z,4.43
2023-03-29T01:35:49.214Z,4.40
2023-03-29T01:38:19.496Z,4.00
2023-03-29T01:40:46.050Z,4.00
2023-03-29T01:43:21.858Z,4.55
2023-03-29T01:46:22.871Z,4.25
2023-03-29T01:48:52.159Z,3.70
2023-03-29T01:51:24.134Z,3.75
2023-03-29T01:54:13.712Z,4.13
2023-03-29T01:59:11.550Z,4.10
2023-03-29T02:01:49.033Z,3.92
2023-03-29T02:04:18.850Z,3.90
2023-03-29T02:09:12.578Z,3.90
2023-03-29T02:11:41.744Z,4.47
2023-03-29T02:14:09.769Z,4.10
2023-03-29T02:16:39.336Z,3.88
2023-03-29T02:21:40.866Z,3.90
2023-03-29T02:24:11.211Z,3.78
2023-03-29T02:26:38.321Z,3.75
2023-03-29T02:29:08.204Z,3.97
2023-03-29T02:31:49.554Z,4.07
2023-03-29T02:34:29.524Z,4.20
2023-03-29T02:36:59.882Z,3.83
2023-03-29T02:39:28.001Z,3.97
2023-03-29T02:41:54.910Z,3.70
2023-03-29T02:44:28.426Z,3.70
2023-03-29T02:46:57.443Z,3.80
2023-03-29T02:49:23.986Z,3.70
2023-03-29T02:51:53.484Z,3.72
2023-03-29T02:54:23.101Z,3.72
2023-03-29T02:56:55.165Z,4.40
2023-03-29T02:59:22.574Z,4.40
2023-03-29T03:01:49.582Z,4.00
2023-03-29T03:04:18.327Z,3.95
2023-03-29T03:06:44.783Z,5.90
2023-03-29T03:09:11.737Z,5.55
2023-03-29T03:11:41.686Z,4.88
2023-03-29T03:14:08.401Z,3.95
2023-03-29T03:16:35.347Z,4.30
2023-03-29T03:19:01.982Z,3.67
2023-03-29T03:21:28.446Z,3.70
2023-03-29T03:23:55.656Z,3.47
2023-03-29T03:26:24.885Z,3.40
2023-03-29T03:28:51.478Z,3.38
2023-03-29T03:34:34.718Z,3.47
2023-03-29T03:37:01.944Z,3.47
2023-03-29T03:39:31.072Z,3.90
2023-03-29T03:41:57.725Z,4.10
2023-03-29T03:44:24.288Z,3.90
2023-03-29T03:47:08.129Z,3.80
2023-03-29T03:49:36.664Z,3.90
2023-03-29T03:52:03.160Z,3.75
2023-03-29T03:54:29.962Z,3.47
2023-03-29T03:57:15.145Z,3.83
2023-03-29T03:59:46.830Z,3.63
2023-03-29T04:02:20.276Z,3.58
2023-03-29T04:04:47.599Z,4.00
2023-03-29T04:07:18.106Z,3.80
2023-03-29T04:09:54.036Z,5.78
2023-03-29T04:12:31.437Z,13.73
2023-03-29T04:14:58.821Z,8.50
2023-03-29T04:17:27.215Z,7.30
2023-03-29T04:19:58.722Z,7.28
2023-03-29T04:22:28.821Z,5.93
2023-03-29T04:24:55.319Z,4.90
2023-03-29T04:27:30.650Z,5.85
2023-03-29T04:29:59.477Z,5.55
2023-03-29T04:32:46.186Z,5.13
2023-03-29T04:35:13.047Z,5.25
2023-03-29T04:37:42.486Z,5.63
2023-03-29T04:40:14.264Z,5.05
2023-03-29T04:43:00.806Z,5.05
2023-03-29T04:45:27.486Z,5.00
2023-03-29T04:48:10.157Z,4.60
2023-03-29T04:50:39.942Z,4.35
2023-03-29T04:53:07.936Z,4.22
2023-03-29T04:55:34.482Z,4.55
2023-03-29T04:58:07.994Z,4.22
2023-03-29T05:00:37.884Z,4.60
2023-03-29T05:03:18.111Z,4.45
2023-03-29T05:06:07.143Z,4.60
2023-03-29T05:08:38.926Z,5.10
2023-03-29T05:11:24.301Z,4.68
2023-03-29T05:13:51.182Z,4.30
2023-03-29T05:16:18.560Z,4.28
2023-03-29T05:18:45.271Z,4.50
2023-03-29T05:21:11.972Z,4.80
2023-03-29T05:23:41.520Z,6.60
2023-03-29T05:26:16.734Z,5.28
2023-03-29T05:28:49.301Z,5.63
2023-03-29T05:31:17.265Z,6.78
2023-03-29T05:33:48.295Z,5.70
2023-03-29T05:38:46.598Z,5.78
2023-03-29T05:41:14.380Z,5.20
2023-03-29T05:44:01.491Z,4.95
2023-03-29T05:46:29.014Z,5.15
2023-03-29T05:49:01.400Z,5.43
2023-03-29T05:51:51.876Z,5.38
2023-03-29T05:54:18.412Z,5.35
2023-03-29T05:56:45.019Z,5.25
2023-03-29T05:59:11.522Z,4.72
2023-03-29T06:01:40.019Z,4.68
2023-03-29T06:04:08.967Z,4.85
2023-03-29T06:06:42.059Z,4.93
2023-03-29T06:09:09.042Z,4.60
2023-03-29T06:14:41.413Z,4.50
2023-03-29T06:17:20.751Z,4.68
2023-03-29T06:19:47.615Z,4.63
2023-03-29T06:22:15.254Z,4.63
2023-03-29T06:24:42.327Z,4.68
2023-03-29T06:27:17.600Z,4.60
2023-03-29T06:29:44.587Z,4.53
2023-03-29T06:32:11.729Z,4.93
2023-03-29T06:34:50.851Z,5.07
2023-03-29T06:37:23.714Z,5.32
2023-03-29T06:39:59.707Z,5.80
2023-03-29T06:42:33.598Z,8.65
2023-03-29T06:45:19.696Z,6.30
2023-03-29T06:47:50.202Z,5.00
2023-03-29T06:50:19.416Z,5.22
2023-03-29T06:53:07.625Z,5.15
2023-03-29T06:55:35.981Z,6.28
2023-03-29T06:58:21.863Z,5.80
2023-03-29T07:00:48.499Z,5.47
2023-03-29T07:03:23.385Z,5.43
2023-03-29T07:06:01.142Z,5.60
2023-03-29T07:08:31.568Z,5.80
2023-03-29T07:11:02.338Z,5.70
2023-03-29T07:14:02.888Z,5.72
2023-03-29T07:16:29.432Z,6.18
2023-03-29T07:19:16.258Z,5.68
2023-03-29T07:21:55.061Z,5.87
2023-03-29T07:24:29.241Z,5.95
2023-03-29T07:27:03.724Z,5.88
2023-03-29T07:29:31.580Z,5.60
2023-03-29T07:31:58.214Z,5.40
2023-03-29T07:34:49.203Z,5.65
2023-03-29T07:37:35.100Z,6.10
2023-03-29T07:40:04.241Z,5.07
2023-03-29T07:42:55.295Z,5.72
2023-03-29T07:45:26.129Z,5.40
2023-03-29T07:48:03.872Z,5.80
2023-03-29T07:50:46.141Z,5.50
2023-03-29T07:53:13.264Z,5.85
2023-03-29T07:55:47.341Z,5.25
2023-03-29T07:58:32.654Z,5.57
2023-03-29T08:01:03.183Z,5.57
2023-03-29T08:03:49.886Z,5.57
2023-03-29T08:06:16.910Z,5.13
2023-03-29T08:08:43.447Z,4.80
2023-03-29T08:11:14.081Z,5.32
2023-03-29T08:13:59.636Z,5.60
2023-03-29T08:16:26.897Z,5.97
2023-03-29T08:19:03.365Z,5.15
2023-03-29T08:21:46.800Z,4.90
2023-03-29T08:24:13.929Z,5.32
2023-03-29T08:26:45.992Z,5.50
2023-03-29T08:29:13.712Z,5.65
2023-03-29T08:31:43.097Z,5.53
2023-03-29T08:34:09.757Z,7.43
2023-03-29T08:36:55.625Z,6.57
2023-03-29T08:39:34.108Z,7.95
2023-03-29T08:42:51.974Z,6.10
2023-03-29T08:45:51.101Z,6.20
2023-03-29T08:48:30.047Z,5.82
2023-03-29T08:51:27.996Z,6.93
2023-03-29T08:53:57.646Z,7.18
2023-03-29T08:56:33.518Z,5.68
2023-03-29T08:59:22.500Z,5.97
2023-03-29T09:01:50.529Z,6.35
2023-03-29T09:04:21.451Z,5.80
2023-03-29T09:06:52.986Z,5.63
2023-03-29T09:09:28.716Z,5.00
2023-03-29T09:12:16.134Z,4.68
2023-03-29T09:15:15.518Z,5.20
2023-03-29T09:18:09.710Z,5.10
2023-03-29T09:20:54.328Z,5.47
2023-03-29T09:23:47.667Z,5.20
2023-03-29T09:26:29.029Z,6.30
2023-03-29T09:29:22.190Z,12.05
2023-03-29T09:31:49.683Z,6.95
2023-03-29T09:34:19.866Z,6.05
2023-03-29T09:37:21.901Z,6.88
2023-03-29T09:39:49.968Z,5.28
2023-03-29T09:42:19.789Z,5.35
2023-03-29T09:45:01.915Z,7.68
2023-03-29T09:47:51.974Z,5.35
2023-03-29T09:50:31.657Z,5.35
2023-03-29T09:53:01.556Z,4.90
2023-03-29T09:55:33.802Z,6.00
2023-03-29T09:58:27.476Z,5.00
2023-03-29T10:00:58.225Z,7.15
2023-03-29T10:03:27.233Z,5.85
2023-03-29T10:06:06.804Z,4.60
2023-03-29T10:08:40.533Z,7.03
2023-03-29T10:11:30.350Z,7.15
2023-03-29T10:14:01.982Z,4.93
2023-03-29T10:16:41.351Z,4.65
2023-03-29T10:19:35.949Z,7.80
2023-03-29T10:22:08.403Z,7.50
2023-03-29T10:24:34.888Z,7.63
2023-03-29T10:27:04.042Z,6.13
2023-03-29T10:29:41.201Z,6.40
2023-03-29T10:32:16.354Z,5.63
2023-03-29T10:34:43.786Z,5.70
2023-03-29T10:37:11.327Z,4.75
2023-03-29T10:39:39.454Z,5.93
2023-03-29T10:42:08.320Z,4.75
2023-03-29T10:44:36.498Z,4.82
2023-03-29T10:47:14.588Z,4.40
2023-03-29T10:49:44.659Z,4.65
2023-03-29T10:52:13.755Z,5.13
2023-03-29T10:54:40.365Z,5.10
2023-03-29T10:57:10.356Z,4.10
2023-03-29T10:59:55.937Z,4.13
2023-03-29T11:02:34.414Z,4.50
2023-03-29T11:05:21.808Z,4.00
2023-03-29T11:08:01.190Z,4.50
2023-03-29T11:10:53.797Z,4.75
2023-03-29T11:13:39.144Z,4.88
2023-03-29T11:16:10.755Z,4.40
2023-03-29T11:18:37.261Z,4.50
2023-03-29T11:21:23.375Z,4.47
2023-03-29T11:23:58.292Z,4.70
2023-03-29T11:26:27.177Z,4.30
2023-03-29T11:29:02.776Z,5.15
2023-03-29T11:31:57.248Z,4.60
2023-03-29T11:34:29.740Z,4.80
2023-03-29T11:37:09.387Z,4.82
2023-03-29T11:39:44.921Z,4.82
2023-03-29T11:42:20.734Z,4.70
2023-03-29T11:44:48.506Z,4.55
2023-03-29T11:47:18.844Z,4.65
2023-03-29T11:49:54.366Z,4.63
2023-03-29T11:53:12.622Z,4.30
2023-03-29T11:55:43.672Z,4.60
2023-03-29T11:58:15.680Z,4.40
2023-03-29T12:01:09.220Z,4.53
2023-03-29T12:03:47.337Z,4.50
2023-03-29T12:06:23.112Z,4.37
2023-03-29T12:09:16.235Z,4.20
2023-03-29T12:12:08.160Z,4.35
2023-03-29T12:14:56.105Z,4.50
2023-03-29T12:18:00.344Z,3.90
2023-03-29T12:20:31.239Z,3.70
2023-03-29T12:23:00.745Z,4.25
2023-03-29T12:25:42.528Z,3.90
2023-03-29T12:28:41.240Z,3.60
2023-03-29T12:31:17.819Z,3.55
2023-03-29T12:34:15.598Z,4.03
2023-03-29T12:37:28.187Z,4.00
2023-03-29T12:40:41.734Z,4.00
2023-03-29T12:43:30.968Z,3.80
2023-03-29T12:46:19.446Z,3.70
2023-03-29T12:48:49.428Z,4.20
2023-03-29T12:51:29.128Z,3.95
2023-03-29T12:54:21.123Z,4.00
2023-03-29T12:56:58.407Z,4.15
2023-03-29T12:59:45.183Z,3.72
2023-03-29T13:02:15.046Z,3.80
2023-03-29T13:04:56.270Z,4.05
2023-03-29T13:07:22.941Z,3.88
2023-03-29T13:09:56.382Z,4.00
2023-03-29T13:12:32.917Z,4.10
2023-03-29T13:15:27.277Z,3.72
2023-03-29T13:18:02.602Z,4.25
2023-03-29T13:20:57.571Z,4.30
2023-03-29T13:23:29.471Z,4.50
2023-03-29T13:26:21.498Z,5.45
2023-03-29T13:28:55.469Z,4.28
2023-03-29T13:31:44.204Z,4.13
2023-03-29T13:34:31.033Z,3.50
2023-03-29T13:37:08.678Z,3.60
2023-03-29T13:39:40.778Z,3.67
2023-03-29T13:42:16.435Z,3.50
2023-03-29T13:44:45.549Z,3.58
2023-03-29T13:47:18.539Z,3.22
2023-03-29T13:49:52.015Z,3.00
2023-03-29T13:52:18.455Z,3.20
2023-03-29T13:54:52.456Z,3.38
2023-03-29T13:57:21.992Z,3.20
2023-03-29T14:00:11.779Z,3.30
2023-03-29T14:02:51.526Z,3.50
2023-03-29T14:05:21.827Z,3.30
2023-03-29T14:07:51.611Z,3.65
2023-03-29T14:10:23.090Z,3.10
2023-03-29T14:12:49.763Z,3.13
2023-03-29T14:15:43.625Z,3.33
2023-03-29T14:18:12.066Z,3.42
2023-03-29T14:20:43.243Z,3.17
2023-03-29T14:23:12.757Z,3.38
2023-03-29T14:25:40.726Z,3.38
2023-03-29T14:28:27.891Z,3.30
2023-03-29T14:30:55.972Z,3.63
2023-03-29T14:33:27.276Z,3.70
2023-03-29T14:35:58.765Z,3.80
2023-03-29T14:38:26.183Z,3.70
2023-03-29T14:40:53.566Z,3.28
2023-03-29T14:43:22.478Z,3.35
2023-03-29T14:45:49.554Z,3.88
2023-03-29T14:48:16.370Z,3.47
2023-03-29T14:50:44.494Z,3.40
2023-03-29T14:53:18.709Z,3.75
2023-03-29T14:55:49.486Z,3.53
2023-03-29T14:58:28.401Z,3.20
2023-03-29T15:00:58.292Z,3.50
2023-03-29T15:03:27.999Z,3.60
2023-03-29T15:06:00.539Z,3.50
2023-03-29T15:08:36.076Z,3.53
2023-03-29T15:11:03.003Z,3.50
2023-03-29T15:13:29.940Z,3.53
2023-03-29T15:16:01.871Z,3.30
2023-03-29T15:18:41.404Z,3.70
2023-03-29T15:21:09.434Z,3.60
2023-03-29T15:23:46.604Z,3.53
2023-03-29T15:26:15.311Z,3.60
2023-03-29T15:28:55.557Z,3.60
2023-03-29T15:31:27.220Z,3.80
2023-03-29T15:34:11.648Z,3.72
2023-03-29T15:36:43.448Z,3.70
2023-03-29T15:39:14.251Z,4.18
2023-03-29T15:41:42.094Z,4.50
2023-03-29T15:44:09.038Z,4.35
2023-03-29T15:46:38.752Z,4.00
2023-03-29T15:49:05.312Z,3.65
2023-03-29T15:51:32.007Z,3.60
2023-03-29T15:53:58.527Z,3.70
2023-03-29T15:56:25.029Z,3.60
2023-03-29T15:58:52.093Z,3.85
2023-03-29T16:01:33.746Z,3.90
2023-03-29T16:04:05.413Z,3.90
2023-03-29T16:06:33.385Z,4.40
2023-03-29T16:08:59.969Z,4.10
2023-03-29T16:11:28.280Z,11.80
2023-03-29T16:13:58.358Z,8.60
2023-03-29T16:16:27.753Z,4.47
2023-03-29T16:18:54.277Z,4.75
2023-03-29T16:21:22.209Z,4.13
2023-03-29T16:23:50.218Z,7.95
2023-03-29T16:26:20.710Z,6.55
2023-03-29T16:28:47.510Z,12.45
2023-03-29T16:31:14.200Z,10.68
2023-03-29T16:33:46.674Z,7.20
2023-03-29T16:36:13.362Z,15.00
2023-03-29T16:38:42.911Z,5.45
2023-03-29T16:41:14.884Z,6.22
2023-03-29T16:43:41.495Z,10.10
2023-03-29T16:46:11.720Z,11.93
2023-03-29T16:48:38.427Z,6.53
2023-03-29T16:51:05.709Z,6.50
2023-03-29T16:53:35.623Z,5.80
2023-03-29T16:56:03.414Z,8.85
2023-03-29T16:58:30.198Z,6.10
2023-03-29T17:01:10.001Z,7.55
2023-03-29T17:03:37.397Z,10.45
2023-03-29T17:06:04.801Z,9.38
2023-03-29T17:08:32.059Z,8.23
2023-03-29T17:10:58.829Z,7.28
2023-03-29T17:13:31.596Z,6.20
2023-03-29T17:15:58.202Z,6.50
2023-03-29T17:18:25.640Z,8.15
2023-03-29T17:20:56.881Z,6.55
2023-03-29T17:23:24.026Z,7.25
2023-03-29T17:25:58.559Z,6.25
2023-03-29T17:28:25.691Z,4.97
2023-03-29T17:30:55.681Z,4.35
2023-03-29T17:33:26.169Z,10.48
2023-03-29T17:35:53.040Z,4.60
2023-03-29T17:38:19.716Z,4.57
2023-03-29T17:40:52.953Z,4.30
2023-03-29T17:43:19.521Z,3.97
2023-03-29T17:45:46.419Z,4.00
2023-03-29T17:48:13.233Z,4.28
2023-03-29T17:50:39.800Z,5.50
2023-03-29T17:53:06.604Z,5.50
2023-03-29T17:55:33.161Z,6.43
2023-03-29T17:57:59.686Z,4.93
2023-03-29T18:00:26.245Z,4.20
2023-03-29T18:02:52.877Z,4.20
2023-03-29T18:05:19.511Z,4.07
2023-03-29T18:07:46.148Z,4.00
2023-03-29T18:10:12.645Z,4.70
2023-03-29T18:12:39.300Z,4.50
2023-03-29T18:15:06.857Z,6.55
2023-03-29T18:17:35.555Z,8.82
2023-03-29T18:20:02.196Z,5.25
2023-03-29T18:22:29.141Z,5.85
2023-03-29T18:24:56.421Z,8.07
2023-03-29T18:27:22.978Z,12.02
2023-03-29T18:29:49.582Z,10.63
2023-03-29T18:32:16.251Z,7.95
2023-03-29T18:34:42.907Z,7.70
2023-03-29T18:37:14.508Z,6.45
2023-03-29T18:39:41.616Z,5.80
2023-03-29T18:42:10.210Z,6.20
2023-03-29T18:44:38.726Z,6.22
2023-03-29T18:47:05.338Z,6.13
2023-03-29T18:49:32.479Z,7.45
2023-03-29T18:51:58.960Z,6.45
2023-03-29T18:54:25.617Z,5.80
2023-03-29T18:56:52.627Z,4.85
2023-03-29T18:59:20.090Z,5.07
2023-03-29T19:01:47.415Z,5.38
2023-03-29T19:04:14.373Z,5.05
2023-03-29T19:06:41.887Z,4.55
2023-03-29T19:09:09.793Z,4.80
2023-03-29T19:11:36.611Z,4.82
2023-03-29T19:14:04.424Z,4.50
2023-03-29T19:16:31.049Z,4.30
2023-03-29T19:18:57.693Z,4.30
2023-03-29T19:21:24.271Z,4.35
2023-03-29T19:23:52.903Z,4.28
2023-03-29T19:26:19.518Z,4.55
2023-03-29T19:28:46.171Z,5.18
2023-03-29T19:31:12.826Z,5.30
2023-03-29T19:33:40.827Z,4.97
2023-03-29T19:36:07.841Z,4.28
2023-03-29T19:38:34.567Z,4.30
2023-03-29T19:41:01.183Z,4.20
2023-03-29T19:43:27.818Z,4.90
2023-03-29T19:45:54.378Z,4.40
2023-03-29T19:48:22.405Z,4.30
2023-03-29T19:53:17.226Z,3.80
2023-03-29T19:55:45.459Z,4.28
2023-03-29T19:58:32.754Z,5.35
2023-03-29T20:00:59.385Z,6.95
2023-03-29T20:03:30.351Z,6.88
2023-03-29T20:05:57.444Z,7.07
2023-03-29T20:08:26.050Z,6.85
2023-03-29T20:11:00.251Z,6.90
2023-03-29T20:13:37.340Z,7.72
2023-03-29T20:16:13.053Z,5.50
2023-03-29T20:18:39.811Z,7.13
2023-03-29T20:21:27.422Z,6.47
2023-03-29T20:23:54.132Z,7.07
2023-03-29T20:26:41.087Z,6.38
2023-03-29T20:29:08.779Z,5.20
2023-03-29T20:31:35.823Z,5.40
2023-03-29T20:34:02.648Z,5.18
2023-03-29T20:36:30.658Z,4.55
2023-03-29T20:38:59.167Z,4.32
2023-03-29T20:41:26.132Z,4.30
2023-03-29T20:43:58.429Z,4.55
2023-03-29T20:46:35.122Z,4.40
2023-03-29T20:49:07.428Z,4.60
2023-03-29T20:51:34.155Z,4.72
2023-03-29T20:54:04.657Z,4.70
2023-03-29T20:56:33.298Z,4.53
2023-03-29T20:58:59.937Z,5.10
2023-03-29T21:01:29.456Z,5.45
2023-03-29T21:03:56.493Z,5.45
2023-03-29T21:06:24.391Z,5.20
2023-03-29T21:08:52.495Z,5.10
2023-03-29T21:11:20.936Z,5.15
2023-03-29T21:13:47.627Z,5.20
2023-03-29T21:16:14.361Z,5.40
2023-03-29T21:18:41.634Z,5.03
2023-03-29T21:21:09.333Z,4.88
2023-03-29T21:23:36.514Z,5.47
2023-03-29T21:26:04.287Z,4.95
2023-03-29T21:28:30.984Z,5.32
2023-03-29T21:30:57.642Z,5.60
2023-03-29T21:33:24.366Z,5.38
2023-03-29T21:35:50.994Z,5.50
2023-03-29T21:38:18.904Z,4.80
2023-03-29T21:40:45.461Z,5.20
2023-03-29T21:43:12.034Z,4.90
2023-03-29T21:45:38.581Z,4.43
2023-03-29T21:48:05.285Z,4.90
2023-03-29T21:50:33.871Z,4.78
2023-03-29T21:53:03.870Z,4.53
2023-03-29T21:55:33.228Z,4.70
2023-03-29T21:57:59.729Z,4.90
2023-03-29T22:00:26.390Z,4.70
2023-03-29T22:02:53.072Z,5.50
2023-03-29T22:05:19.672Z,6.05
2023-03-29T22:07:50.291Z,5.20
2023-03-29T22:10:16.887Z,4.60
2023-03-29T22:12:43.694Z,4.28
2023-03-29T22:15:12.031Z,4.78
2023-03-29T22:17:38.547Z,4.25
2023-03-29T22:20:12.585Z,4.35
2023-03-29T22:22:40.804Z,4.65
2023-03-29T22:25:07.634Z,4.03
2023-03-29T22:27:34.169Z,4.32
2023-03-29T22:30:00.857Z,4.40
2023-03-29T22:32:29.653Z,4.15
2023-03-29T22:34:56.314Z,4.00
2023-03-29T22:37:22.853Z,4.53
2023-03-29T22:39:50.020Z,4.28
2023-03-29T22:42:16.651Z,4.30
2023-03-29T22:44:43.184Z,4.40
2023-03-29T22:47:09.682Z,4.15
2023-03-29T22:49:36.344Z,4.53
2023-03-29T22:52:02.819Z,4.47
2023-03-29T22:54:29.520Z,4.80
2023-03-29T22:56:56.853Z,5.28
2023-03-29T22:59:23.506Z,5.68
2023-03-29T23:01:50.068Z,5.80
2023-03-29T23:04:16.940Z,5.80
2023-03-29T23:06:44.064Z,5.47
2023-03-29T23:09:31.456Z,5.53
2023-03-29T23:11:57.955Z,5.53
2023-03-29T23:14:24.491Z,5.30
2023-03-29T23:16:50.918Z,5.38
2023-03-29T23:19:17.393Z,5.60
2023-03-29T23:21:43.903Z,5.63
2023-03-29T23:24:10.398Z,5.97
2023-03-29T23:26:37.470Z,5.40
2023-03-29T23:29:04.109Z,5.55
2023-03-29T23:31:30.712Z,5.30
2023-03-29T23:33:58.955Z,5.72
2023-03-29T23:36:27.082Z,5.40
2023-03-29T23:38:53.980Z,4.95
2023-03-29T23:41:20.577Z,5.38
2023-03-29T23:43:48.287Z,5.38
2023-03-29T23:46:16.346Z,5.35
2023-03-29T23:48:50.109Z,4.97
2023-03-29T23:51:18.572Z,4.63
2023-03-29T23:53:45.117Z,4.45
2023-03-29T23:56:11.907Z,4.30
2023-03-29T23:58:38.429Z,4.60
